sensor_id;sensor_type;location;lat;lon;timestamp;P1;durP1;ratioP1;P2;durP2;ratioP2
34212;SDS011;20477;51.390;8.102;2022-12-07T00:00:13;30.67;;;18.88;;
34212;SDS011;20477;51.390;8.102;2022-12-07T00:02:42;32.17;;;20.98;;
34212;SDS011;20477;51.390;8.102;2022-12-07T00:05:18;32.47;;;20.63;;
34212;SDS011;20477;51.390;8.102;2022-12-07T00:07:52;38.35;;;24.30;;
34212;SDS011;20477;51.390;8.102;2022-12-07T00:10:21;37.55;;;24.25;;
34212;SDS011;20477;51.390;8.102;2022-12-07T00:12:55;40.25;;;26.30;;
34212;SDS011;20477;51.390;8.102;2022-12-07T00:15:33;45.78;;;26.02;;
34212;SDS011;20477;51.390;8.102;2022-12-07T00:18:01;54.60;;;29.45;;
34212;SDS011;20477;51.390;8.102;2022-12-07T00:20:36;54.20;;;32.15;;
34212;SDS011;20477;51.390;8.102;2022-12-07T00:23:06;53.17;;;31.17;;
34212;SDS011;20477;51.390;8.102;2022-12-07T00:25:33;53.55;;;30.63;;
34212;SDS011;20477;51.390;8.102;2022-12-07T00:28:00;54.58;;;32.95;;
34212;SDS011;20477;51.390;8.102;2022-12-07T00:30:27;54.88;;;33.90;;
34212;SDS011;20477;51.390;8.102;2022-12-07T00:32:54;57.60;;;33.50;;
34212;SDS011;20477;51.390;8.102;2022-12-07T00:35:21;57.53;;;34.17;;
34212;SDS011;20477;51.390;8.102;2022-12-07T00:37:51;55.40;;;34.70;;
34212;SDS011;20477;51.390;8.102;2022-12-07T00:40:18;64.82;;;36.60;;
34212;SDS011;20477;51.390;8.102;2022-12-07T00:42:49;53.20;;;32.45;;
34212;SDS011;20477;51.390;8.102;2022-12-07T00:47:56;54.13;;;34.45;;
34212;SDS011;20477;51.390;8.102;2022-12-07T00:50:26;56.38;;;34.38;;
34212;SDS011;20477;51.390;8.102;2022-12-07T00:52:56;49.00;;;30.98;;
34212;SDS011;20477;51.390;8.102;2022-12-07T00:55:35;57.10;;;32.75;;
34212;SDS011;20477;51.390;8.102;2022-12-07T00:58:23;58.85;;;38.22;;
34212;SDS011;20477;51.390;8.102;2022-12-07T01:01:02;60.50;;;36.42;;
34212;SDS011;20477;51.390;8.102;2022-12-07T01:03:35;60.45;;;37.58;;
34212;SDS011;20477;51.390;8.102;2022-12-07T01:06:08;62.13;;;36.03;;
34212;SDS011;20477;51.390;8.102;2022-12-07T01:08:40;57.78;;;31.50;;
34212;SDS011;20477;51.390;8.102;2022-12-07T01:11:22;54.85;;;34.63;;
34212;SDS011;20477;51.390;8.102;2022-12-07T01:14:11;50.92;;;32.03;;
34212;SDS011;20477;51.390;8.102;2022-12-07T01:16:40;54.75;;;33.00;;
34212;SDS011;20477;51.390;8.102;2022-12-07T01:19:22;52.05;;;33.88;;
34212;SDS011;20477;51.390;8.102;2022-12-07T01:22:40;52.70;;;34.20;;
34212;SDS011;20477;51.390;8.102;2022-12-07T01:25:13;54.58;;;34.33;;
34212;SDS011;20477;51.390;8.102;2022-12-07T01:27:43;54.08;;;32.55;;
34212;SDS011;20477;51.390;8.102;2022-12-07T01:30:23;51.10;;;33.63;;
34212;SDS011;20477;51.390;8.102;2022-12-07T01:32:51;51.70;;;33.65;;
34212;SDS011;20477;51.390;8.102;2022-12-07T01:35:22;50.28;;;33.70;;
34212;SDS011;20477;51.390;8.102;2022-12-07T01:38:00;43.72;;;29.27;;
34212;SDS011;20477;51.390;8.102;2022-12-07T01:40:33;45.40;;;29.88;;
34212;SDS011;20477;51.390;8.102;2022-12-07T01:43:19;46.72;;;29.50;;
34212;SDS011;20477;51.390;8.102;2022-12-07T01:46:26;46.58;;;29.10;;
34212;SDS011;20477;51.390;8.102;2022-12-07T01:49:03;41.40;;;28.52;;
34212;SDS011;20477;51.390;8.102;2022-12-07T01:51:32;46.67;;;28.75;;
34212;SDS011;20477;51.390;8.102;2022-12-07T01:54:00;45.78;;;29.40;;
34212;SDS011;20477;51.390;8.102;2022-12-07T01:56:27;43.92;;;29.67;;
34212;SDS011;20477;51.390;8.102;2022-12-07T01:58:59;46.65;;;29.80;;
34212;SDS011;20477;51.390;8.102;2022-12-07T02:01:40;50.25;;;30.45;;
34212;SDS011;20477;51.390;8.102;2022-12-07T02:04:08;53.60;;;33.08;;
34212;SDS011;20477;51.390;8.102;2022-12-07T02:06:40;58.97;;;35.08;;
34212;SDS011;20477;51.390;8.102;2022-12-07T02:09:08;52.40;;;34.08;;
34212;SDS011;20477;51.390;8.102;2022-12-07T02:11:38;57.85;;;37.17;;
34212;SDS011;20477;51.390;8.102;2022-12-07T02:14:07;56.75;;;34.53;;
34212;SDS011;20477;51.390;8.102;2022-12-07T02:16:38;57.85;;;36.25;;
34212;SDS011;20477;51.390;8.102;2022-12-07T02:20:07;63.67;;;37.25;;
34212;SDS011;20477;51.390;8.102;2022-12-07T02:30:34;60.60;;;33.97;;
34212;SDS011;20477;51.390;8.102;2022-12-07T02:38:35;60.55;;;33.60;;
34212;SDS011;20477;51.390;8.102;2022-12-07T02:41:20;58.35;;;35.15;;
34212;SDS011;20477;51.390;8.102;2022-12-07T02:44:01;57.15;;;34.38;;
34212;SDS011;20477;51.390;8.102;2022-12-07T02:46:31;58.83;;;34.33;;
34212;SDS011;20477;51.390;8.102;2022-12-07T02:49:09;59.28;;;34.78;;
34212;SDS011;20477;51.390;8.102;2022-12-07T02:51:44;69.57;;;34.70;;
34212;SDS011;20477;51.390;8.102;2022-12-07T02:54:13;59.67;;;36.83;;
34212;SDS011;20477;51.390;8.102;2022-12-07T03:07:51;59.92;;;36.65;;
34212;SDS011;20477;51.390;8.102;2022-12-07T03:13:14;65.18;;;38.42;;
34212;SDS011;20477;51.390;8.102;2022-12-07T03:18:29;66.70;;;37.35;;
34212;SDS011;20477;51.390;8.102;2022-12-07T03:20:58;58.28;;;36.30;;
34212;SDS011;20477;51.390;8.102;2022-12-07T03:23:31;55.90;;;33.42;;
34212;SDS011;20477;51.390;8.102;2022-12-07T03:26:22;57.63;;;34.97;;
34212;SDS011;20477;51.390;8.102;2022-12-07T03:28:52;62.65;;;35.33;;
34212;SDS011;20477;51.390;8.102;2022-12-07T03:31:23;54.25;;;31.92;;
34212;SDS011;20477;51.390;8.102;2022-12-07T03:34:11;57.95;;;33.67;;
34212;SDS011;20477;51.390;8.102;2022-12-07T03:36:51;50.72;;;31.27;;
34212;SDS011;20477;51.390;8.102;2022-12-07T03:42:24;63.22;;;29.50;;
34212;SDS011;20477;51.390;8.102;2022-12-07T03:44:51;52.65;;;31.63;;
34212;SDS011;20477;51.390;8.102;2022-12-07T03:52:58;48.83;;;30.42;;
34212;SDS011;20477;51.390;8.102;2022-12-07T03:55:38;45.17;;;26.15;;
34212;SDS011;20477;51.390;8.102;2022-12-07T03:58:11;49.15;;;26.27;;
34212;SDS011;20477;51.390;8.102;2022-12-07T04:00:52;43.92;;;27.98;;
34212;SDS011;20477;51.390;8.102;2022-12-07T04:03:19;46.75;;;26.98;;
34212;SDS011;20477;51.390;8.102;2022-12-07T04:09:03;53.72;;;28.33;;
34212;SDS011;20477;51.390;8.102;2022-12-07T04:11:30;50.28;;;27.95;;
34212;SDS011;20477;51.390;8.102;2022-12-07T04:14:04;44.97;;;26.83;;
34212;SDS011;20477;51.390;8.102;2022-12-07T04:16:51;50.55;;;26.35;;
34212;SDS011;20477;51.390;8.102;2022-12-07T04:19:20;45.78;;;26.35;;
34212;SDS011;20477;51.390;8.102;2022-12-07T04:21:52;50.38;;;27.20;;
34212;SDS011;20477;51.390;8.102;2022-12-07T04:24:19;47.80;;;26.45;;
34212;SDS011;20477;51.390;8.102;2022-12-07T04:26:47;40.47;;;24.38;;
34212;SDS011;20477;51.390;8.102;2022-12-07T04:29:14;44.28;;;23.88;;
34212;SDS011;20477;51.390;8.102;2022-12-07T04:31:42;39.42;;;21.40;;
34212;SDS011;20477;51.390;8.102;2022-12-07T04:34:10;36.83;;;21.42;;
34212;SDS011;20477;51.390;8.102;2022-12-07T04:36:37;33.17;;;20.88;;
34212;SDS011;20477;51.390;8.102;2022-12-07T04:39:06;34.50;;;18.95;;
34212;SDS011;20477;51.390;8.102;2022-12-07T04:41:34;35.22;;;18.00;;
34212;SDS011;20477;51.390;8.102;2022-12-07T04:44:02;31.42;;;16.98;;
34212;SDS011;20477;51.390;8.102;2022-12-07T04:46:30;30.25;;;16.17;;
34212;SDS011;20477;51.390;8.102;2022-12-07T04:48:58;29.00;;;14.90;;
34212;SDS011;20477;51.390;8.102;2022-12-07T04:51:28;27.48;;;15.77;;
34212;SDS011;20477;51.390;8.102;2022-12-07T04:53:55;30.05;;;16.85;;
34212;SDS011;20477;51.390;8.102;2022-12-07T04:56:22;35.20;;;16.10;;
34212;SDS011;20477;51.390;8.102;2022-12-07T04:58:56;32.95;;;16.27;;
34212;SDS011;20477;51.390;8.102;2022-12-07T05:01:32;31.75;;;15.80;;
34212;SDS011;20477;51.390;8.102;2022-12-07T05:03:59;36.53;;;16.77;;
34212;SDS011;20477;51.390;8.102;2022-12-07T05:06:26;36.83;;;17.40;;
34212;SDS011;20477;51.390;8.102;2022-12-07T05:08:55;29.33;;;15.38;;
34212;SDS011;20477;51.390;8.102;2022-12-07T05:11:22;40.65;;;15.90;;
34212;SDS011;20477;51.390;8.102;2022-12-07T05:14:22;35.17;;;16.90;;
34212;SDS011;20477;51.390;8.102;2022-12-07T05:16:50;27.42;;;16.42;;
34212;SDS011;20477;51.390;8.102;2022-12-07T05:19:18;38.92;;;17.05;;
34212;SDS011;20477;51.390;8.102;2022-12-07T05:21:45;32.20;;;17.45;;
34212;SDS011;20477;51.390;8.102;2022-12-07T05:24:13;35.60;;;15.20;;
34212;SDS011;20477;51.390;8.102;2022-12-07T05:26:44;30.23;;;15.90;;
34212;SDS011;20477;51.390;8.102;2022-12-07T05:29:15;29.60;;;17.30;;
34212;SDS011;20477;51.390;8.102;2022-12-07T05:31:44;44.67;;;18.85;;
34212;SDS011;20477;51.390;8.102;2022-12-07T05:34:12;32.47;;;17.27;;
34212;SDS011;20477;51.390;8.102;2022-12-07T05:36:39;35.17;;;17.02;;
34212;SDS011;20477;51.390;8.102;2022-12-07T05:39:06;35.28;;;16.00;;
34212;SDS011;20477;51.390;8.102;2022-12-07T05:41:36;34.63;;;17.73;;
34212;SDS011;20477;51.390;8.102;2022-12-07T05:44:22;36.83;;;18.33;;
34212;SDS011;20477;51.390;8.102;2022-12-07T05:46:49;35.97;;;19.50;;
34212;SDS011;20477;51.390;8.102;2022-12-07T05:49:16;38.83;;;18.10;;
34212;SDS011;20477;51.390;8.102;2022-12-07T05:51:43;34.95;;;18.83;;
34212;SDS011;20477;51.390;8.102;2022-12-07T05:54:10;41.20;;;19.20;;
34212;SDS011;20477;51.390;8.102;2022-12-07T05:56:36;32.13;;;16.23;;
34212;SDS011;20477;51.390;8.102;2022-12-07T05:59:03;30.00;;;16.45;;
34212;SDS011;20477;51.390;8.102;2022-12-07T06:01:49;32.35;;;17.90;;
34212;SDS011;20477;51.390;8.102;2022-12-07T06:04:23;44.05;;;20.10;;
34212;SDS011;20477;51.390;8.102;2022-12-07T06:06:51;29.17;;;18.55;;
34212;SDS011;20477;51.390;8.102;2022-12-07T06:09:18;36.28;;;19.40;;
34212;SDS011;20477;51.390;8.102;2022-12-07T06:11:46;36.55;;;18.08;;
34212;SDS011;20477;51.390;8.102;2022-12-07T06:14:32;29.48;;;17.00;;
34212;SDS011;20477;51.390;8.102;2022-12-07T06:16:59;32.25;;;18.60;;
34212;SDS011;20477;51.390;8.102;2022-12-07T06:19:26;33.60;;;17.20;;
34212;SDS011;20477;51.390;8.102;2022-12-07T06:21:53;30.02;;;16.63;;
34212;SDS011;20477;51.390;8.102;2022-12-07T06:24:20;34.72;;;16.52;;
34212;SDS011;20477;51.390;8.102;2022-12-07T06:26:47;35.33;;;17.88;;
34212;SDS011;20477;51.390;8.102;2022-12-07T06:29:15;30.50;;;17.48;;
34212;SDS011;20477;51.390;8.102;2022-12-07T06:31:43;31.88;;;17.70;;
34212;SDS011;20477;51.390;8.102;2022-12-07T06:34:11;30.65;;;17.42;;
34212;SDS011;20477;51.390;8.102;2022-12-07T06:36:39;32.90;;;16.73;;
34212;SDS011;20477;51.390;8.102;2022-12-07T06:39:07;27.02;;;16.40;;
34212;SDS011;20477;51.390;8.102;2022-12-07T06:41:38;30.98;;;16.27;;
34212;SDS011;20477;51.390;8.102;2022-12-07T06:44:05;34.25;;;16.35;;
34212;SDS011;20477;51.390;8.102;2022-12-07T06:46:32;33.15;;;16.27;;
34212;SDS011;20477;51.390;8.102;2022-12-07T06:49:02;32.35;;;16.23;;
34212;SDS011;20477;51.390;8.102;2022-12-07T06:51:29;32.50;;;16.27;;
34212;SDS011;20477;51.390;8.102;2022-12-07T06:53:57;28.65;;;15.90;;
34212;SDS011;20477;51.390;8.102;2022-12-07T06:56:24;34.38;;;15.68;;
34212;SDS011;20477;51.390;8.102;2022-12-07T06:58:51;37.42;;;15.52;;
34212;SDS011;20477;51.390;8.102;2022-12-07T07:01:18;30.00;;;14.90;;
34212;SDS011;20477;51.390;8.102;2022-12-07T07:03:45;29.85;;;16.08;;
34212;SDS011;20477;51.390;8.102;2022-12-07T07:06:12;30.35;;;15.70;;
34212;SDS011;20477;51.390;8.102;2022-12-07T07:08:40;28.80;;;16.77;;
34212;SDS011;20477;51.390;8.102;2022-12-07T07:11:07;33.10;;;15.75;;
34212;SDS011;20477;51.390;8.102;2022-12-07T07:13:34;24.50;;;15.20;;
34212;SDS011;20477;51.390;8.102;2022-12-07T07:16:01;33.80;;;14.32;;
34212;SDS011;20477;51.390;8.102;2022-12-07T07:18:29;24.00;;;14.65;;
34212;SDS011;20477;51.390;8.102;2022-12-07T07:20:57;27.30;;;13.00;;
34212;SDS011;20477;51.390;8.102;2022-12-07T07:23:24;28.58;;;15.02;;
34212;SDS011;20477;51.390;8.102;2022-12-07T07:25:51;29.23;;;15.98;;
34212;SDS011;20477;51.390;8.102;2022-12-07T07:28:18;30.02;;;16.02;;
34212;SDS011;20477;51.390;8.102;2022-12-07T07:30:45;27.55;;;15.85;;
34212;SDS011;20477;51.390;8.102;2022-12-07T07:33:12;36.90;;;15.73;;
34212;SDS011;20477;51.390;8.102;2022-12-07T07:35:39;25.38;;;15.00;;
34212;SDS011;20477;51.390;8.102;2022-12-07T07:38:06;30.25;;;15.20;;
34212;SDS011;20477;51.390;8.102;2022-12-07T07:40:33;28.35;;;14.95;;
34212;SDS011;20477;51.390;8.102;2022-12-07T07:43:00;30.65;;;15.25;;
34212;SDS011;20477;51.390;8.102;2022-12-07T07:45:27;31.08;;;16.27;;
34212;SDS011;20477;51.390;8.102;2022-12-07T07:47:54;36.67;;;18.45;;
34212;SDS011;20477;51.390;8.102;2022-12-07T07:50:21;28.05;;;16.90;;
34212;SDS011;20477;51.390;8.102;2022-12-07T07:52:48;33.30;;;16.10;;
34212;SDS011;20477;51.390;8.102;2022-12-07T07:55:15;31.08;;;15.93;;
34212;SDS011;20477;51.390;8.102;2022-12-07T07:57:42;30.35;;;15.35;;
34212;SDS011;20477;51.390;8.102;2022-12-07T08:00:15;30.87;;;15.60;;
34212;SDS011;20477;51.390;8.102;2022-12-07T08:02:42;32.05;;;14.70;;
34212;SDS011;20477;51.390;8.102;2022-12-07T08:05:10;31.65;;;16.20;;
34212;SDS011;20477;51.390;8.102;2022-12-07T08:07:38;32.58;;;15.25;;
34212;SDS011;20477;51.390;8.102;2022-12-07T08:10:05;34.60;;;14.10;;
34212;SDS011;20477;51.390;8.102;2022-12-07T08:12:37;26.88;;;14.05;;
34212;SDS011;20477;51.390;8.102;2022-12-07T08:15:25;31.83;;;14.93;;
34212;SDS011;20477;51.390;8.102;2022-12-07T08:17:53;29.35;;;15.18;;
34212;SDS011;20477;51.390;8.102;2022-12-07T08:20:20;25.85;;;14.48;;
34212;SDS011;20477;51.390;8.102;2022-12-07T08:22:47;26.17;;;14.68;;
34212;SDS011;20477;51.390;8.102;2022-12-07T08:25:14;29.48;;;15.65;;
34212;SDS011;20477;51.390;8.102;2022-12-07T08:27:41;29.10;;;15.35;;
34212;SDS011;20477;51.390;8.102;2022-12-07T08:30:08;33.28;;;16.27;;
34212;SDS011;20477;51.390;8.102;2022-12-07T08:32:35;34.00;;;16.45;;
34212;SDS011;20477;51.390;8.102;2022-12-07T08:35:02;33.40;;;14.70;;
34212;SDS011;20477;51.390;8.102;2022-12-07T08:37:29;32.53;;;13.57;;
34212;SDS011;20477;51.390;8.102;2022-12-07T08:39:57;27.77;;;14.15;;
34212;SDS011;20477;51.390;8.102;2022-12-07T08:42:25;30.85;;;13.80;;
34212;SDS011;20477;51.390;8.102;2022-12-07T08:44:56;29.30;;;14.38;;
34212;SDS011;20477;51.390;8.102;2022-12-07T08:47:23;34.50;;;14.07;;
34212;SDS011;20477;51.390;8.102;2022-12-07T08:49:51;24.10;;;12.70;;
34212;SDS011;20477;51.390;8.102;2022-12-07T08:52:19;35.97;;;15.45;;
34212;SDS011;20477;51.390;8.102;2022-12-07T08:54:48;28.88;;;15.20;;
34212;SDS011;20477;51.390;8.102;2022-12-07T08:57:15;26.95;;;14.32;;
34212;SDS011;20477;51.390;8.102;2022-12-07T08:59:42;26.95;;;14.43;;
34212;SDS011;20477;51.390;8.102;2022-12-07T09:02:09;26.38;;;13.30;;
34212;SDS011;20477;51.390;8.102;2022-12-07T09:04:36;33.03;;;14.73;;
34212;SDS011;20477;51.390;8.102;2022-12-07T09:07:03;35.63;;;13.68;;
34212;SDS011;20477;51.390;8.102;2022-12-07T09:09:30;40.90;;;14.68;;
34212;SDS011;20477;51.390;8.102;2022-12-07T09:11:57;24.58;;;12.25;;
34212;SDS011;20477;51.390;8.102;2022-12-07T09:14:24;31.35;;;12.88;;
34212;SDS011;20477;51.390;8.102;2022-12-07T09:16:51;32.60;;;11.90;;
34212;SDS011;20477;51.390;8.102;2022-12-07T09:19:18;32.20;;;13.98;;
34212;SDS011;20477;51.390;8.102;2022-12-07T09:21:45;29.88;;;12.90;;
34212;SDS011;20477;51.390;8.102;2022-12-07T09:24:12;24.75;;;11.98;;
34212;SDS011;20477;51.390;8.102;2022-12-07T09:26:40;32.25;;;11.18;;
34212;SDS011;20477;51.390;8.102;2022-12-07T09:29:10;23.58;;;11.07;;
34212;SDS011;20477;51.390;8.102;2022-12-07T09:31:37;24.85;;;11.23;;
34212;SDS011;20477;51.390;8.102;2022-12-07T09:34:04;28.33;;;10.93;;
34212;SDS011;20477;51.390;8.102;2022-12-07T09:36:32;27.08;;;11.32;;
34212;SDS011;20477;51.390;8.102;2022-12-07T09:38:59;26.65;;;11.05;;
34212;SDS011;20477;51.390;8.102;2022-12-07T09:41:26;23.73;;;10.88;;
34212;SDS011;20477;51.390;8.102;2022-12-07T09:43:56;24.42;;;11.25;;
34212;SDS011;20477;51.390;8.102;2022-12-07T09:46:29;23.73;;;10.20;;
34212;SDS011;20477;51.390;8.102;2022-12-07T09:49:00;24.60;;;11.00;;
34212;SDS011;20477;51.390;8.102;2022-12-07T09:51:29;27.25;;;11.10;;
34212;SDS011;20477;51.390;8.102;2022-12-07T09:53:56;29.40;;;10.35;;
34212;SDS011;20477;51.390;8.102;2022-12-07T09:56:24;23.20;;;10.25;;
34212;SDS011;20477;51.390;8.102;2022-12-07T09:58:56;24.13;;;10.68;;
34212;SDS011;20477;51.390;8.102;2022-12-07T10:01:30;22.02;;;10.32;;
34212;SDS011;20477;51.390;8.102;2022-12-07T10:04:00;18.70;;;10.30;;
34212;SDS011;20477;51.390;8.102;2022-12-07T10:06:41;22.52;;;10.50;;
34212;SDS011;20477;51.390;8.102;2022-12-07T10:09:15;24.52;;;11.48;;
34212;SDS011;20477;51.390;8.102;2022-12-07T10:14:54;19.15;;;9.68;;
34212;SDS011;20477;51.390;8.102;2022-12-07T10:17:40;24.73;;;9.43;;
34212;SDS011;20477;51.390;8.102;2022-12-07T10:22:53;27.25;;;10.20;;
34212;SDS011;20477;51.390;8.102;2022-12-07T10:25:22;20.75;;;9.35;;
34212;SDS011;20477;51.390;8.102;2022-12-07T10:31:01;22.40;;;9.98;;
34212;SDS011;20477;51.390;8.102;2022-12-07T10:36:20;24.92;;;11.25;;
34212;SDS011;20477;51.390;8.102;2022-12-07T10:38:49;30.38;;;10.07;;
34212;SDS011;20477;51.390;8.102;2022-12-07T10:41:19;19.00;;;9.63;;
34212;SDS011;20477;51.390;8.102;2022-12-07T10:43:47;24.10;;;9.45;;
34212;SDS011;20477;51.390;8.102;2022-12-07T10:57:10;18.30;;;10.50;;
34212;SDS011;20477;51.390;8.102;2022-12-07T11:00:09;25.75;;;11.07;;
34212;SDS011;20477;51.390;8.102;2022-12-07T11:02:45;20.00;;;10.30;;
34212;SDS011;20477;51.390;8.102;2022-12-07T11:05:31;30.98;;;12.10;;
34212;SDS011;20477;51.390;8.102;2022-12-07T11:17:13;25.60;;;10.98;;
34212;SDS011;20477;51.390;8.102;2022-12-07T11:22:30;19.63;;;10.93;;
34212;SDS011;20477;51.390;8.102;2022-12-07T11:25:20;25.77;;;10.90;;
34212;SDS011;20477;51.390;8.102;2022-12-07T11:30:47;19.67;;;11.00;;
34212;SDS011;20477;51.390;8.102;2022-12-07T11:33:30;26.67;;;12.63;;
34212;SDS011;20477;51.390;8.102;2022-12-07T11:38:58;19.92;;;10.98;;
34212;SDS011;20477;51.390;8.102;2022-12-07T11:41:29;24.75;;;11.65;;
34212;SDS011;20477;51.390;8.102;2022-12-07T11:50:00;23.95;;;12.10;;
34212;SDS011;20477;51.390;8.102;2022-12-07T11:53:01;32.95;;;10.35;;
34212;SDS011;20477;51.390;8.102;2022-12-07T12:04:10;18.33;;;10.65;;
34212;SDS011;20477;51.390;8.102;2022-12-07T12:06:58;25.23;;;11.93;;
34212;SDS011;20477;51.390;8.102;2022-12-07T12:09:55;33.45;;;10.05;;
34212;SDS011;20477;51.390;8.102;2022-12-07T12:12:31;23.50;;;10.75;;
34212;SDS011;20477;51.390;8.102;2022-12-07T12:26:05;29.20;;;11.60;;
34212;SDS011;20477;51.390;8.102;2022-12-07T12:28:36;26.98;;;12.43;;
34212;SDS011;20477;51.390;8.102;2022-12-07T12:31:29;31.05;;;12.75;;
34212;SDS011;20477;51.390;8.102;2022-12-07T12:34:01;28.75;;;13.15;;
34212;SDS011;20477;51.390;8.102;2022-12-07T12:46:46;18.50;;;10.63;;
34212;SDS011;20477;51.390;8.102;2022-12-07T12:49:30;28.58;;;12.40;;
34212;SDS011;20477;51.390;8.102;2022-12-07T12:55:16;28.80;;;13.00;;
34212;SDS011;20477;51.390;8.102;2022-12-07T12:57:48;27.25;;;11.23;;
34212;SDS011;20477;51.390;8.102;2022-12-07T13:08:56;23.75;;;13.65;;
34212;SDS011;20477;51.390;8.102;2022-12-07T13:11:35;20.30;;;11.37;;
34212;SDS011;20477;51.390;8.102;2022-12-07T13:17:53;36.67;;;12.63;;
34212;SDS011;20477;51.390;8.102;2022-12-07T13:19:59;28.97;;;12.13;;
34212;SDS011;20477;51.390;8.102;2022-12-07T13:22:39;23.35;;;10.13;;
34212;SDS011;20477;51.390;8.102;2022-12-07T13:28:09;26.58;;;13.00;;
34212;SDS011;20477;51.390;8.102;2022-12-07T13:30:45;33.33;;;13.02;;
34212;SDS011;20477;51.390;8.102;2022-12-07T13:33:24;26.65;;;11.88;;
34212;SDS011;20477;51.390;8.102;2022-12-07T13:35:54;22.42;;;11.65;;
34212;SDS011;20477;51.390;8.102;2022-12-07T13:38:27;31.48;;;11.88;;
34212;SDS011;20477;51.390;8.102;2022-12-07T13:40:59;27.23;;;12.43;;
34212;SDS011;20477;51.390;8.102;2022-12-07T13:43:53;23.63;;;11.02;;
34212;SDS011;20477;51.390;8.102;2022-12-07T13:49:38;29.95;;;10.73;;
34212;SDS011;20477;51.390;8.102;2022-12-07T13:52:22;22.63;;;11.13;;
34212;SDS011;20477;51.390;8.102;2022-12-07T13:57:24;18.85;;;10.52;;
34212;SDS011;20477;51.390;8.102;2022-12-07T13:59:52;23.58;;;10.93;;
34212;SDS011;20477;51.390;8.102;2022-12-07T14:02:29;21.17;;;10.98;;
34212;SDS011;20477;51.390;8.102;2022-12-07T14:05:07;32.80;;;10.90;;
34212;SDS011;20477;51.390;8.102;2022-12-07T14:08:01;20.80;;;10.63;;
34212;SDS011;20477;51.390;8.102;2022-12-07T14:13:01;20.67;;;10.13;;
34212;SDS011;20477;51.390;8.102;2022-12-07T14:15:38;22.70;;;9.27;;
34212;SDS011;20477;51.390;8.102;2022-12-07T14:18:05;24.58;;;10.27;;
34212;SDS011;20477;51.390;8.102;2022-12-07T14:20:51;25.45;;;11.20;;
34212;SDS011;20477;51.390;8.102;2022-12-07T14:23:32;21.30;;;9.32;;
34212;SDS011;20477;51.390;8.102;2022-12-07T14:26:13;19.58;;;9.07;;
34212;SDS011;20477;51.390;8.102;2022-12-07T14:28:45;16.95;;;8.38;;
34212;SDS011;20477;51.390;8.102;2022-12-07T14:31:23;21.15;;;9.10;;
34212;SDS011;20477;51.390;8.102;2022-12-07T14:33:59;22.02;;;8.63;;
34212;SDS011;20477;51.390;8.102;2022-12-07T14:36:26;18.75;;;7.82;;
34212;SDS011;20477;51.390;8.102;2022-12-07T14:38:53;15.95;;;8.50;;
34212;SDS011;20477;51.390;8.102;2022-12-07T14:41:22;19.15;;;7.68;;
34212;SDS011;20477;51.390;8.102;2022-12-07T14:44:11;15.75;;;6.65;;
34212;SDS011;20477;51.390;8.102;2022-12-07T14:46:58;22.48;;;8.50;;
34212;SDS011;20477;51.390;8.102;2022-12-07T14:49:45;17.48;;;8.95;;
34212;SDS011;20477;51.390;8.102;2022-12-07T14:52:16;20.80;;;8.73;;
34212;SDS011;20477;51.390;8.102;2022-12-07T14:55:12;23.63;;;9.25;;
34212;SDS011;20477;51.390;8.102;2022-12-07T14:57:40;20.48;;;8.68;;
34212;SDS011;20477;51.390;8.102;2022-12-07T15:00:08;26.40;;;9.50;;
34212;SDS011;20477;51.390;8.102;2022-12-07T15:02:36;17.25;;;8.73;;
34212;SDS011;20477;51.390;8.102;2022-12-07T15:05:03;17.05;;;9.23;;
34212;SDS011;20477;51.390;8.102;2022-12-07T15:07:33;22.10;;;9.25;;
34212;SDS011;20477;51.390;8.102;2022-12-07T15:10:00;26.30;;;11.30;;
34212;SDS011;20477;51.390;8.102;2022-12-07T15:12:27;17.70;;;10.85;;
34212;SDS011;20477;51.390;8.102;2022-12-07T15:14:54;21.40;;;10.63;;
34212;SDS011;20477;51.390;8.102;2022-12-07T15:17:21;22.75;;;12.27;;
34212;SDS011;20477;51.390;8.102;2022-12-07T15:19:57;24.77;;;10.30;;
34212;SDS011;20477;51.390;8.102;2022-12-07T15:22:23;23.60;;;10.82;;
34212;SDS011;20477;51.390;8.102;2022-12-07T15:24:50;23.58;;;12.20;;
34212;SDS011;20477;51.390;8.102;2022-12-07T15:27:17;20.83;;;11.63;;
34212;SDS011;20477;51.390;8.102;2022-12-07T15:29:44;21.58;;;12.77;;
34212;SDS011;20477;51.390;8.102;2022-12-07T15:32:11;28.83;;;14.80;;
34212;SDS011;20477;51.390;8.102;2022-12-07T15:34:38;25.10;;;14.07;;
34212;SDS011;20477;51.390;8.102;2022-12-07T15:37:06;31.00;;;14.85;;
34212;SDS011;20477;51.390;8.102;2022-12-07T15:39:35;33.28;;;15.00;;
34212;SDS011;20477;51.390;8.102;2022-12-07T15:42:02;32.88;;;18.05;;
34212;SDS011;20477;51.390;8.102;2022-12-07T15:44:29;54.60;;;20.30;;
34212;SDS011;20477;51.390;8.102;2022-12-07T15:47:15;45.72;;;18.08;;
34212;SDS011;20477;51.390;8.102;2022-12-07T15:49:42;57.28;;;21.25;;
34212;SDS011;20477;51.390;8.102;2022-12-07T15:52:09;42.25;;;18.02;;
34212;SDS011;20477;51.390;8.102;2022-12-07T15:54:36;31.95;;;14.00;;
34212;SDS011;20477;51.390;8.102;2022-12-07T15:57:03;29.23;;;14.65;;
34212;SDS011;20477;51.390;8.102;2022-12-07T15:59:30;28.67;;;15.27;;
34212;SDS011;20477;51.390;8.102;2022-12-07T16:01:57;23.60;;;14.43;;
34212;SDS011;20477;51.390;8.102;2022-12-07T16:04:26;34.47;;;15.00;;
34212;SDS011;20477;51.390;8.102;2022-12-07T16:06:54;27.05;;;13.70;;
34212;SDS011;20477;51.390;8.102;2022-12-07T16:09:22;36.08;;;18.20;;
34212;SDS011;20477;51.390;8.102;2022-12-07T16:11:49;20.33;;;13.20;;
34212;SDS011;20477;51.390;8.102;2022-12-07T16:14:19;23.67;;;14.95;;
34212;SDS011;20477;51.390;8.102;2022-12-07T16:16:46;23.60;;;13.10;;
34212;SDS011;20477;51.390;8.102;2022-12-07T16:19:13;28.90;;;15.02;;
34212;SDS011;20477;51.390;8.102;2022-12-07T16:21:40;20.77;;;12.57;;
34212;SDS011;20477;51.390;8.102;2022-12-07T16:24:08;23.83;;;12.30;;
34212;SDS011;20477;51.390;8.102;2022-12-07T16:26:36;25.35;;;12.15;;
34212;SDS011;20477;51.390;8.102;2022-12-07T16:29:03;22.80;;;15.60;;
34212;SDS011;20477;51.390;8.102;2022-12-07T16:31:30;20.30;;;12.13;;
34212;SDS011;20477;51.390;8.102;2022-12-07T16:33:57;20.40;;;13.38;;
34212;SDS011;20477;51.390;8.102;2022-12-07T16:36:24;27.55;;;14.27;;
34212;SDS011;20477;51.390;8.102;2022-12-07T16:39:13;25.45;;;13.23;;
34212;SDS011;20477;51.390;8.102;2022-12-07T16:41:40;23.92;;;14.75;;
34212;SDS011;20477;51.390;8.102;2022-12-07T16:44:09;22.75;;;12.02;;
34212;SDS011;20477;51.390;8.102;2022-12-07T16:46:39;25.85;;;12.45;;
34212;SDS011;20477;51.390;8.102;2022-12-07T16:49:06;24.42;;;11.73;;
34212;SDS011;20477;51.390;8.102;2022-12-07T16:51:35;19.85;;;11.00;;
34212;SDS011;20477;51.390;8.102;2022-12-07T16:54:03;21.27;;;11.85;;
34212;SDS011;20477;51.390;8.102;2022-12-07T16:56:30;22.17;;;11.82;;
34212;SDS011;20477;51.390;8.102;2022-12-07T16:58:57;21.13;;;11.02;;
34212;SDS011;20477;51.390;8.102;2022-12-07T17:01:25;21.27;;;12.75;;
34212;SDS011;20477;51.390;8.102;2022-12-07T17:03:55;19.92;;;11.60;;
34212;SDS011;20477;51.390;8.102;2022-12-07T17:06:24;25.30;;;13.45;;
34212;SDS011;20477;51.390;8.102;2022-12-07T17:08:52;28.60;;;14.23;;
34212;SDS011;20477;51.390;8.102;2022-12-07T17:11:20;28.48;;;13.57;;
34212;SDS011;20477;51.390;8.102;2022-12-07T17:13:49;31.00;;;16.92;;
34212;SDS011;20477;51.390;8.102;2022-12-07T17:16:36;26.55;;;14.52;;